METAR UND TAF INFORMATION
EDXW 251450Z 34017KT 9999 FEW041 08/05 Q1020

 FLUGHAFENKARTE

 RUNWAY INFORMATION
Runway 06 Runway length 5564 ft Runway width 148 ft
Runway elevation 27 ft Runway displaced threshold 0 ft Runway heading 60
Runway 24 Runway length 5564 ft Runway width 148 ft
Runway elevation 51 ft Runway displaced threshold 0 ft Runway heading 240
Runway 14 Runway length 6955 ft Runway width 148 ft
Runway elevation 32 ft Runway displaced threshold 0 ft Runway heading 144
Runway 32 Runway length 6955 ft Runway width 148 ft
Runway elevation 31 ft Runway displaced threshold 0 ft Runway heading 324

 AIRPORT FREQUENCIES
Type INFO Name BREMEN INF Frequency 125.1 MHZ
Type RDR Name BREMEN RAD Frequency 136.225 MHZ
Type TWR Name SYLT TWR Frequency 119.75 MHZ

 AIRPORT NEAR NAVIGATION AIDS
Type NDB Name Sylt Frequency 387 KHZ
Type DME Name Westerland Frequency 111500 KHZ